Citta Di Savona — IMDS — position and weather

sailwx.info

Track history (hours):
 
Tides and Currents Weather Stations Pressure Air Temp Water Temp Dewpoint Dewpoint Depression Visibility Wind Speed Wind Dir Waves Ship Positions

Citta Di Savona

Last reported at 2014-Nov-19 18:33 UTC. Time now 2014-Nov-20 20:54 UTC.
Position N 44°19' E 008°29'.

Length 31 m; draft 4.2 m.

Type: Tug. MMSI: 247402000.

Date/timePositionNaut miles runAvg speedWind from/ knotsBaromVisibWave heightAir tempDewpointWater temp
2014-Nov-19 18:33N 44°19' E 008°29'0 0.4
2014-Nov-19 17:32N 44°19' E 008°30'1 0.1
2014-Nov-19 08:04N 44°18' E 008°29'0 0.0
2014-Nov-19 07:31N 44°18' E 008°29'0 0.0
2014-Nov-19 04:16N 44°18' E 008°29'0 0.0
2014-Nov-19 03:22N 44°18' E 008°29'0 0.0
2014-Nov-19 02:28N 44°18' E 008°29'0 0.0
2014-Nov-19 01:10N 44°18' E 008°29'0 0.0
2014-Nov-19 00:04N 44°18' E 008°29'0 0.0
2014-Nov-18 20:04N 44°18' E 008°29'2 0.1
2014-Nov-17 07:32N 44°17' E 008°28'3 2.5
2014-Nov-17 06:32N 44°19' E 008°30'0 0.1
2014-Nov-17 05:18N 44°19' E 008°30'0 0.0
2014-Nov-16 18:24N 44°19' E 008°30'0 0.0
2014-Nov-16 08:20N 44°19' E 008°30'0 0.6
2014-Nov-16 07:33N 44°19' E 008°29'0 0.0
2014-Nov-15 16:17N 44°18' E 008°29'0 0.0
2014-Nov-15 15:33N 44°18' E 008°29'1 0.7
2014-Nov-15 14:33N 44°19' E 008°30'1 0.2
2014-Nov-15 11:33N 44°18' E 008°29'0 0.0
2014-Nov-15 08:17N 44°18' E 008°29'0 0.4
2014-Nov-15 07:32N 44°19' E 008°29'0 0.3
2014-Nov-15 06:18N 44°18' E 008°29'0 0.0
2014-Nov-15 05:17N 44°18' E 008°29'0 0.0
2014-Nov-15 04:07N 44°18' E 008°29'0 0.0
2014-Nov-15 03:33N 44°18' E 008°29'0 0.0
2014-Nov-15 02:21N 44°18' E 008°29'0 0.0
2014-Nov-14 11:31N 44°18' E 008°29'0 0.0
2014-Nov-14 07:33N 44°18' E 008°29'0 0.0
2014-Nov-13 15:31N 44°18' E 008°29'0 0.0
2014-Nov-13 14:14N 44°18' E 008°29'0 0.0
2014-Nov-13 11:27N 44°18' E 008°29'0 0.0
2014-Nov-13 10:17N 44°18' E 008°29'0 0.0
2014-Nov-13 07:31N 44°18' E 008°29'0 0.0
2014-Nov-13 06:12N 44°18' E 008°29'0 0.0
2014-Nov-13 05:17N 44°18' E 008°29'0 0.0
2014-Nov-12 11:31N 44°18' E 008°29'0 0.0
2014-Nov-12 10:25N 44°18' E 008°29'0 0.0
2014-Nov-12 08:07N 44°18' E 008°29'0 0.0
2014-Nov-12 07:31N 44°18' E 008°29'0 0.0
2014-Nov-12 06:32N 44°18' E 008°29'0 0.0
2014-Nov-12 05:22N 44°18' E 008°29'0 0.0
2014-Nov-12 04:17N 44°18' E 008°29'0 0.0
2014-Nov-12 03:32N 44°18' E 008°29'0 0.0
2014-Nov-12 02:33N 44°18' E 008°29'0 0.0
2014-Nov-12 01:33N 44°18' E 008°29'0 0.0
2014-Nov-12 00:33N 44°18' E 008°29'0 0.0
2014-Nov-11 23:30N 44°18' E 008°29'0 0.0
2014-Nov-11 22:33N 44°18' E 008°29'0 0.0
2014-Nov-11 14:33N 44°18' E 008°29'0 0.0
2014-Nov-11 13:31N 44°18' E 008°29'0 0.0
2014-Nov-11 12:13N 44°18' E 008°29'0 0.0
2014-Nov-11 11:33N 44°18' E 008°29'0 0.1
2014-Nov-11 10:33N 44°19' E 008°29'0 0.0
2014-Nov-11 09:32N 44°19' E 008°29'0 0.0
2014-Nov-11 08:19N 44°19' E 008°29'0 0.2
2014-Nov-11 07:33N 44°18' E 008°29'1 0.6
2014-Nov-11 06:33N 44°19' E 008°30'1 0.1
2014-Nov-10 22:33N 44°18' E 008°29'0 0.0
2014-Nov-10 20:04N 44°18' E 008°29'1 1.4
2014-Nov-10 19:33N 44°19' E 008°30'0 0.0
2014-Nov-10 16:15N 44°19' E 008°30'1 0.1
2014-Nov-10 09:17N 44°18' E 008°29'0 0.0
2014-Nov-10 08:13N 44°18' E 008°29'1 0.3
2014-Nov-10 06:23N 44°19' E 008°30'4 4.0
2014-Nov-10 05:27N 44°16' E 008°27'3 2.7
2014-Nov-10 04:17N 44°18' E 008°29'0 0.0
2014-Nov-10 03:33N 44°18' E 008°29'0 0.0
2014-Nov-10 02:33N 44°18' E 008°29'0 0.0
2014-Nov-10 01:33N 44°18' E 008°29'0 0.0
2014-Nov-10 00:33N 44°18' E 008°29'0 0.0
2014-Nov-09 23:33N 44°18' E 008°29'0 0.0
2014-Nov-09 20:17N 44°18' E 008°29'0 0.0
2014-Nov-09 19:31N 44°18' E 008°29'  
Track history (hours):
 
Tides and Currents Weather Stations Pressure Air Temp Water Temp Dewpoint Dewpoint Depression Visibility Wind Speed Wind Dir Waves Ship Positions

Citta Di Savona

Last reported at 2014-Nov-19 18:33 UTC. Time now 2014-Nov-20 20:54 UTC.
Position N 44°19' E 008°29'.

Length 31 m; draft 4.2 m.

Type: Tug. MMSI: 247402000.

Date/timePositionNaut miles runAvg speedWind from/ knotsBaromVisibWave heightAir tempDewpointWater temp
2014-Nov-19 18:33N 44°19' E 008°29'0 0.4
2014-Nov-19 17:32N 44°19' E 008°30'1 0.1
2014-Nov-19 08:04N 44°18' E 008°29'0 0.0
2014-Nov-19 07:31N 44°18' E 008°29'0 0.0
2014-Nov-19 04:16N 44°18' E 008°29'0 0.0
2014-Nov-19 03:22N 44°18' E 008°29'0 0.0
2014-Nov-19 02:28N 44°18' E 008°29'0 0.0
2014-Nov-19 01:10N 44°18' E 008°29'0 0.0
2014-Nov-19 00:04N 44°18' E 008°29'0 0.0
2014-Nov-18 20:04N 44°18' E 008°29'2 0.1
2014-Nov-17 07:32N 44°17' E 008°28'3 2.5
2014-Nov-17 06:32N 44°19' E 008°30'0 0.1
2014-Nov-17 05:18N 44°19' E 008°30'0 0.0
2014-Nov-16 18:24N 44°19' E 008°30'0 0.0
2014-Nov-16 08:20N 44°19' E 008°30'0 0.6
2014-Nov-16 07:33N 44°19' E 008°29'0 0.0
2014-Nov-15 16:17N 44°18' E 008°29'0 0.0
2014-Nov-15 15:33N 44°18' E 008°29'1 0.7
2014-Nov-15 14:33N 44°19' E 008°30'1 0.2
2014-Nov-15 11:33N 44°18' E 008°29'0 0.0
2014-Nov-15 08:17N 44°18' E 008°29'0 0.4
2014-Nov-15 07:32N 44°19' E 008°29'0 0.3
2014-Nov-15 06:18N 44°18' E 008°29'0 0.0
2014-Nov-15 05:17N 44°18' E 008°29'0 0.0
2014-Nov-15 04:07N 44°18' E 008°29'0 0.0
2014-Nov-15 03:33N 44°18' E 008°29'0 0.0
2014-Nov-15 02:21N 44°18' E 008°29'0 0.0
2014-Nov-14 11:31N 44°18' E 008°29'0 0.0
2014-Nov-14 07:33N 44°18' E 008°29'0 0.0
2014-Nov-13 15:31N 44°18' E 008°29'0 0.0
2014-Nov-13 14:14N 44°18' E 008°29'0 0.0
2014-Nov-13 11:27N 44°18' E 008°29'0 0.0
2014-Nov-13 10:17N 44°18' E 008°29'0 0.0
2014-Nov-13 07:31N 44°18' E 008°29'0 0.0
2014-Nov-13 06:12N 44°18' E 008°29'0 0.0
2014-Nov-13 05:17N 44°18' E 008°29'0 0.0
2014-Nov-12 11:31N 44°18' E 008°29'0 0.0
2014-Nov-12 10:25N 44°18' E 008°29'0 0.0
2014-Nov-12 08:07N 44°18' E 008°29'0 0.0
2014-Nov-12 07:31N 44°18' E 008°29'0 0.0
2014-Nov-12 06:32N 44°18' E 008°29'0 0.0
2014-Nov-12 05:22N 44°18' E 008°29'0 0.0
2014-Nov-12 04:17N 44°18' E 008°29'0 0.0
2014-Nov-12 03:32N 44°18' E 008°29'0 0.0
2014-Nov-12 02:33N 44°18' E 008°29'0 0.0
2014-Nov-12 01:33N 44°18' E 008°29'0 0.0
2014-Nov-12 00:33N 44°18' E 008°29'0 0.0
2014-Nov-11 23:30N 44°18' E 008°29'0 0.0
2014-Nov-11 22:33N 44°18' E 008°29'0 0.0
2014-Nov-11 14:33N 44°18' E 008°29'0 0.0
2014-Nov-11 13:31N 44°18' E 008°29'0 0.0
2014-Nov-11 12:13N 44°18' E 008°29'0 0.0
2014-Nov-11 11:33N 44°18' E 008°29'0 0.1
2014-Nov-11 10:33N 44°19' E 008°29'0 0.0
2014-Nov-11 09:32N 44°19' E 008°29'0 0.0
2014-Nov-11 08:19N 44°19' E 008°29'0 0.2
2014-Nov-11 07:33N 44°18' E 008°29'1 0.6
2014-Nov-11 06:33N 44°19' E 008°30'1 0.1
2014-Nov-10 22:33N 44°18' E 008°29'0 0.0
2014-Nov-10 20:04N 44°18' E 008°29'1 1.4
2014-Nov-10 19:33N 44°19' E 008°30'0 0.0
2014-Nov-10 16:15N 44°19' E 008°30'1 0.1
2014-Nov-10 09:17N 44°18' E 008°29'0 0.0
2014-Nov-10 08:13N 44°18' E 008°29'1 0.3
2014-Nov-10 06:23N 44°19' E 008°30'4 4.0
2014-Nov-10 05:27N 44°16' E 008°27'3 2.7
2014-Nov-10 04:17N 44°18' E 008°29'0 0.0
2014-Nov-10 03:33N 44°18' E 008°29'0 0.0
2014-Nov-10 02:33N 44°18' E 008°29'0 0.0
2014-Nov-10 01:33N 44°18' E 008°29'0 0.0
2014-Nov-10 00:33N 44°18' E 008°29'0 0.0
2014-Nov-09 23:33N 44°18' E 008°29'0 0.0
2014-Nov-09 20:17N 44°18' E 008°29'0 0.0
2014-Nov-09 19:31N 44°18' E 008°29'  

Dump ship's entire track history